Time;durP1;ratioP1;P1;durP2;ratioP2;P2;SDS_P1;SDS_P2;PMS_P1;PMS_P2;Temp;Humidity;BMP_temperature;BMP_pressure;BME280_temperature;BME280_humidity;BME280_pressure;Samples;Min_cycle;Max_cycle;Signal;HPM_P1;HPM_P2
2022/03/06 00:00:11;;;;;;;31.03;27.80;;;-0.10;99.90;;;;;;4999600;28;20129;-77
2022/03/06 00:02:37;;;;;;;29.37;26.37;;;-0.10;99.90;;;;;;4950841;28;20038;-79
2022/03/06 00:05:05;;;;;;;31.13;28.07;;;-0.10;99.90;;;;;;4996166;28;20550;-77
2022/03/06 00:07:30;;;;;;;30.70;27.70;;;-0.10;99.90;;;;;;4969984;28;20046;-77
2022/03/06 00:09:56;;;;;;;31.50;28.20;;;-0.10;99.90;;;;;;4983090;28;20056;-77
2022/03/06 00:12:23;;;;;;;30.33;27.37;;;-0.10;99.90;;;;;;4961875;28;20553;-77
2022/03/06 00:14:48;;;;;;;30.43;27.43;;;-0.10;99.90;;;;;;4992712;28;20046;-77
2022/03/06 00:17:14;;;;;;;30.30;27.27;;;-0.10;99.90;;;;;;4990014;28;20523;-79
2022/03/06 00:19:40;;;;;;;31.57;28.37;;;-0.10;99.90;;;;;;4961569;28;20069;-76
2022/03/06 00:22:06;;;;;;;30.73;27.67;;;-0.10;99.90;;;;;;4991880;28;20133;-79
2022/03/06 00:24:32;;;;;;;30.63;27.73;;;-0.20;99.90;;;;;;4964141;28;20034;-79
2022/03/06 00:26:58;;;;;;;31.80;28.70;;;-0.20;99.90;;;;;;4976447;28;20540;-78
2022/03/06 00:29:24;;;;;;;31.50;28.37;;;-0.20;99.90;;;;;;4979965;28;20057;-79
2022/03/06 00:31:49;;;;;;;30.47;27.47;;;-0.10;99.90;;;;;;4975311;28;20047;-79
2022/03/06 00:34:15;;;;;;;31.20;28.10;;;-0.10;99.90;;;;;;4971356;28;20042;-78
2022/03/06 00:36:41;;;;;;;30.13;27.20;;;-0.10;99.90;;;;;;4970166;28;20049;-78
2022/03/06 00:39:07;;;;;;;29.77;26.97;;;0.00;99.90;;;;;;4975464;28;20092;-78
2022/03/06 00:41:33;;;;;;;31.97;28.90;;;0.00;99.90;;;;;;4985443;28;20073;-78
2022/03/06 00:43:59;;;;;;;29.37;26.57;;;0.00;99.90;;;;;;4980615;28;20046;-78
2022/03/06 00:46:24;;;;;;;30.50;27.60;;;0.00;99.90;;;;;;4975192;28;20072;-78
2022/03/06 00:48:53;;;;;;;30.80;27.70;;;0.00;99.90;;;;;;4969219;28;20105;-76
2022/03/06 00:51:19;;;;;;;31.10;28.10;;;0.00;99.90;;;;;;4988075;28;20650;-77
2022/03/06 00:53:45;;;;;;;30.50;27.60;;;0.10;99.90;;;;;;4997757;28;20038;-77
2022/03/06 00:56:11;;;;;;;30.33;27.43;;;0.10;99.90;;;;;;4986971;28;20062;-77
2022/03/06 00:58:37;;;;;;;31.13;27.93;;;0.10;99.90;;;;;;4984483;28;20057;-76
2022/03/06 01:01:04;;;;;;;29.23;26.37;;;0.10;99.90;;;;;;4961485;28;20045;-77
2022/03/06 01:03:31;;;;;;;30.90;28.00;;;0.10;99.90;;;;;;4973962;28;20090;-77
2022/03/06 01:05:57;;;;;;;30.47;27.57;;;0.10;99.90;;;;;;4986853;28;20046;-78
2022/03/06 01:08:23;;;;;;;29.90;26.97;;;0.10;99.90;;;;;;4957119;28;20508;-77
2022/03/06 01:10:51;;;;;;;29.57;26.73;;;0.20;99.90;;;;;;4973126;28;20049;-77
2022/03/06 01:13:19;;;;;;;30.40;27.27;;;0.20;99.90;;;;;;4972312;28;20042;-77
2022/03/06 01:15:45;;;;;;;30.33;27.43;;;0.20;99.90;;;;;;4990974;28;20125;-78
2022/03/06 01:18:11;;;;;;;29.33;26.43;;;0.30;99.90;;;;;;4964381;28;20050;-78
2022/03/06 01:20:39;;;;;;;30.10;27.23;;;0.20;99.90;;;;;;4987491;28;20046;-78
2022/03/06 01:23:06;;;;;;;29.90;26.83;;;0.30;99.90;;;;;;4977146;28;20050;-77
2022/03/06 01:25:33;;;;;;;29.70;26.80;;;0.30;99.90;;;;;;4958734;28;20058;-78
2022/03/06 01:27:59;;;;;;;29.70;26.80;;;0.30;99.90;;;;;;4984214;28;20077;-77
2022/03/06 01:30:25;;;;;;;29.73;26.83;;;0.30;99.90;;;;;;4949208;28;20531;-78
2022/03/06 01:32:54;;;;;;;28.67;25.97;;;0.40;99.90;;;;;;4960431;28;20042;-77
2022/03/06 01:35:20;;;;;;;29.67;26.70;;;0.40;99.90;;;;;;4969659;28;20065;-78
2022/03/06 01:37:46;;;;;;;28.57;25.97;;;0.40;99.90;;;;;;4995588;28;20046;-78
2022/03/06 01:40:14;;;;;;;28.80;26.00;;;0.40;99.90;;;;;;4986599;28;20072;-77
2022/03/06 01:42:42;;;;;;;28.83;25.97;;;0.40;99.90;;;;;;4972548;28;20083;-78
2022/03/06 01:45:09;;;;;;;28.67;25.73;;;0.50;99.90;;;;;;4967204;28;20042;-77
2022/03/06 01:47:48;;;;;;;28.33;25.33;;;0.50;99.90;;;;;;4986821;28;20645;-78
2022/03/06 01:50:27;;;;;;;27.40;24.73;;;0.50;99.90;;;;;;4989505;28;20143;-77
2022/03/06 01:52:55;;;;;;;26.30;23.70;;;0.50;99.90;;;;;;4985881;28;20038;-77
2022/03/06 01:55:25;;;;;;;26.37;23.57;;;0.50;99.90;;;;;;4975864;28;20038;-78
2022/03/06 01:58:00;;;;;;;26.48;23.77;;;0.60;99.90;;;;;;5007235;28;20104;-78
2022/03/06 02:00:29;;;;;;;26.50;23.97;;;0.60;99.90;;;;;;4978705;28;20046;-77
2022/03/06 02:02:54;;;;;;;26.17;23.67;;;0.60;99.90;;;;;;4971312;28;20485;-78
2022/03/06 02:05:21;;;;;;;26.20;23.60;;;0.70;99.90;;;;;;4974952;28;20054;-78
2022/03/06 02:07:47;;;;;;;25.37;22.80;;;0.70;99.90;;;;;;4993249;28;20054;-78
2022/03/06 02:10:14;;;;;;;26.73;24.10;;;0.70;99.90;;;;;;4988491;28;20072;-78
2022/03/06 02:12:40;;;;;;;27.60;24.83;;;0.70;99.90;;;;;;4986488;28;20050;-78
2022/03/06 02:15:09;;;;;;;25.67;23.07;;;0.70;99.90;;;;;;4984275;28;20115;-77
2022/03/06 02:17:37;;;;;;;25.77;23.37;;;0.80;99.90;;;;;;4980625;28;20038;-78
2022/03/06 02:20:07;;;;;;;26.03;23.23;;;0.80;99.90;;;;;;4976802;28;20114;-78
2022/03/06 02:22:38;;;;;;;25.50;22.87;;;0.80;99.90;;;;;;5011490;28;20048;-79
2022/03/06 02:25:07;;;;;;;25.17;22.73;;;0.80;99.90;;;;;;4958133;28;20050;-78
2022/03/06 02:27:33;;;;;;;24.17;21.67;;;0.80;99.90;;;;;;4987054;28;20444;-78
2022/03/06 02:29:59;;;;;;;23.43;21.07;;;0.80;99.90;;;;;;4987669;28;20417;-78
2022/03/06 02:32:25;;;;;;;23.13;20.83;;;0.80;99.90;;;;;;4985887;28;20042;-78
2022/03/06 02:34:52;;;;;;;24.20;21.77;;;0.80;99.90;;;;;;4980352;28;20056;-78
2022/03/06 02:37:20;;;;;;;22.60;20.30;;;0.80;99.90;;;;;;4946119;28;20054;-78
2022/03/06 02:39:46;;;;;;;22.47;20.17;;;0.80;99.90;;;;;;4985155;28;20253;-77
2022/03/06 02:42:30;;;;;;;22.83;20.47;;;0.80;99.90;;;;;;4976196;28;20133;-78
2022/03/06 02:44:58;;;;;;;22.33;20.13;;;0.90;99.90;;;;;;5000320;28;20045;-79
2022/03/06 02:47:24;;;;;;;22.67;20.47;;;0.80;99.90;;;;;;4969437;28;20289;-78
2022/03/06 02:49:51;;;;;;;22.47;20.17;;;0.90;99.90;;;;;;4979517;28;20046;-78
2022/03/06 02:52:18;;;;;;;23.20;20.80;;;0.90;99.90;;;;;;4972073;28;20126;-78
2022/03/06 02:54:44;;;;;;;22.77;20.37;;;0.90;99.90;;;;;;4961599;28;20048;-78
2022/03/06 02:57:10;;;;;;;22.23;19.93;;;0.90;99.90;;;;;;4983077;28;20049;-79
2022/03/06 02:59:36;;;;;;;22.03;19.83;;;0.90;99.90;;;;;;4988771;28;20041;-77
2022/03/06 03:02:05;;;;;;;21.60;19.50;;;0.90;99.90;;;;;;5000418;28;20109;-78
2022/03/06 03:04:33;;;;;;;21.90;19.50;;;0.90;99.90;;;;;;5004119;28;20603;-78
2022/03/06 03:06:59;;;;;;;21.67;19.47;;;0.90;99.90;;;;;;5001752;28;20121;-78
2022/03/06 03:09:25;;;;;;;21.90;19.80;;;0.90;99.90;;;;;;4952714;28;20454;-78
2022/03/06 03:11:54;;;;;;;21.10;19.00;;;0.80;99.90;;;;;;4954381;28;20045;-77
2022/03/06 03:14:21;;;;;;;20.93;18.83;;;0.80;99.90;;;;;;4971963;28;20409;-78
2022/03/06 03:16:47;;;;;;;21.23;19.23;;;0.80;99.90;;;;;;4972375;28;20052;-78
2022/03/06 03:19:13;;;;;;;21.03;18.53;;;0.80;99.90;;;;;;4988877;28;20050;-79
2022/03/06 03:21:41;;;;;;;20.53;18.43;;;0.80;99.90;;;;;;4976822;28;20050;-77
2022/03/06 03:24:07;;;;;;;21.70;19.40;;;0.70;99.90;;;;;;5004322;28;20084;-77
2022/03/06 03:26:33;;;;;;;22.13;19.93;;;0.70;99.90;;;;;;4987131;28;20505;-76
2022/03/06 03:28:59;;;;;;;21.47;19.37;;;0.70;99.90;;;;;;4972095;28;20039;-78
2022/03/06 03:31:25;;;;;;;22.40;20.10;;;0.60;99.90;;;;;;4956407;28;20088;-78
2022/03/06 03:33:51;;;;;;;21.10;18.97;;;0.60;99.90;;;;;;4989975;28;20046;-78
2022/03/06 03:36:17;;;;;;;23.93;19.63;;;0.50;99.90;;;;;;4991410;28;20048;-78
2022/03/06 03:38:45;;;;;;;20.77;18.70;;;0.50;99.90;;;;;;4961885;28;20038;-78
2022/03/06 03:41:11;;;;;;;21.33;19.03;;;0.50;99.90;;;;;;4997369;28;20129;-78
2022/03/06 03:43:39;;;;;;;20.80;18.80;;;0.50;99.90;;;;;;5003229;28;20041;-78
2022/03/06 03:46:08;;;;;;;19.70;17.90;;;0.50;99.90;;;;;;4976054;28;20105;-78
2022/03/06 03:48:34;;;;;;;21.30;19.20;;;0.40;99.90;;;;;;4992433;28;20124;-77
2022/03/06 03:50:59;;;;;;;19.77;17.77;;;0.40;99.90;;;;;;4977189;28;20189;-77
2022/03/06 03:53:25;;;;;;;20.50;18.37;;;0.30;99.90;;;;;;4999518;28;20038;-76
2022/03/06 03:55:53;;;;;;;19.67;17.57;;;0.30;99.90;;;;;;4975709;28;20682;-79
2022/03/06 03:58:20;;;;;;;19.73;17.93;;;0.30;99.90;;;;;;4994933;28;20149;-79
2022/03/06 04:00:50;;;;;;;19.83;17.67;;;0.30;99.90;;;;;;4989307;28;20049;-76
2022/03/06 04:03:16;;;;;;;;;;;0.20;99.90;;;;;;4992938;28;20088;-78
2022/03/06 04:05:41;;;;;;;20.10;17.57;;;0.20;99.90;;;;;;4992457;28;20387;-77
2022/03/06 04:08:07;;;;;;;19.10;17.23;;;0.20;99.90;;;;;;4976652;28;20057;-78
2022/03/06 04:10:33;;;;;;;19.07;17.10;;;0.10;99.90;;;;;;4958504;28;20095;-78
2022/03/06 04:12:59;;;;;;;20.53;18.30;;;0.10;99.90;;;;;;4998252;28;20517;-78
2022/03/06 04:15:28;;;;;;;18.23;16.37;;;0.10;99.90;;;;;;4979800;28;20046;-78
2022/03/06 04:17:53;;;;;;;19.20;17.37;;;0.10;99.90;;;;;;4975927;28;20041;-77
2022/03/06 04:20:19;;;;;;;18.67;16.70;;;0.10;99.90;;;;;;4959628;28;20068;-78
2022/03/06 04:22:45;;;;;;;17.80;16.00;;;0.10;99.90;;;;;;5001797;28;20089;-78
2022/03/06 04:25:11;;;;;;;18.73;16.43;;;0.10;99.90;;;;;;4984104;28;20073;-77
2022/03/06 04:27:36;;;;;;;17.73;15.97;;;0.10;99.90;;;;;;4977691;28;20042;-78
2022/03/06 04:30:03;;;;;;;17.37;15.33;;;0.10;99.90;;;;;;4990604;28;20057;-77
2022/03/06 04:32:29;;;;;;;16.77;15.07;;;0.00;99.90;;;;;;4973799;28;20050;-77
2022/03/06 04:34:58;;;;;;;18.60;16.80;;;0.00;99.90;;;;;;4985882;28;20392;-78
2022/03/06 04:37:24;;;;;;;18.73;15.63;;;0.00;99.90;;;;;;5000782;28;20178;-78
2022/03/06 04:39:50;;;;;;;17.70;15.90;;;0.00;99.90;;;;;;4985221;28;20115;-78
2022/03/06 04:42:15;;;;;;;15.67;14.13;;;0.00;99.90;;;;;;4990160;28;20049;-77
2022/03/06 04:44:41;;;;;;;16.80;15.00;;;-0.10;99.90;;;;;;4999646;28;20095;-77
2022/03/06 04:47:07;;;;;;;16.17;14.53;;;-0.10;99.90;;;;;;4972768;28;20061;-78
2022/03/06 04:49:33;;;;;;;16.77;13.87;;;-0.10;99.90;;;;;;4993961;28;20046;-78
2022/03/06 04:51:59;;;;;;;15.53;13.90;;;-0.10;99.90;;;;;;4974106;28;20042;-78
2022/03/06 04:54:25;;;;;;;15.43;13.80;;;-0.10;99.90;;;;;;4959628;28;20068;-78
2022/03/06 04:56:51;;;;;;;16.60;14.90;;;-0.10;99.90;;;;;;4994273;28;20095;-78
2022/03/06 04:59:17;;;;;;;15.53;13.57;;;-0.10;99.90;;;;;;4962407;28;20041;-80
2022/03/06 05:01:43;;;;;;;15.93;14.23;;;-0.10;99.90;;;;;;5001073;28;20080;-79
2022/03/06 05:04:10;;;;;;;16.60;13.37;;;-0.10;99.90;;;;;;4988927;28;20081;-79
2022/03/06 05:06:35;;;;;;;14.83;13.23;;;-0.20;99.90;;;;;;4977903;28;20928;-79
2022/03/06 05:09:02;;;;;;;15.53;13.10;;;-0.20;99.90;;;;;;4988445;28;20144;-78
2022/03/06 05:11:28;;;;;;;14.83;12.63;;;-0.20;99.90;;;;;;4988618;28;20643;-79
2022/03/06 05:13:54;;;;;;;14.80;13.20;;;-0.20;99.90;;;;;;5005737;28;20042;-79
2022/03/06 05:16:20;;;;;;;16.20;12.93;;;-0.20;99.90;;;;;;4972251;28;20934;-80
2022/03/06 05:18:46;;;;;;;13.83;12.37;;;-0.20;99.90;;;;;;5005112;28;20069;-79
2022/03/06 05:21:12;;;;;;;16.03;13.67;;;-0.20;99.90;;;;;;4953159;28;20501;-77
2022/03/06 05:23:38;;;;;;;14.77;12.30;;;-0.10;99.90;;;;;;4969482;28;20042;-78
2022/03/06 05:26:04;;;;;;;14.07;12.63;;;-0.10;99.90;;;;;;4969629;28;20061;-78
2022/03/06 05:28:30;;;;;;;14.40;12.90;;;-0.20;99.90;;;;;;4969086;28;20058;-78
2022/03/06 05:30:56;;;;;;;15.67;12.53;;;-0.20;99.90;;;;;;4985817;28;20401;-80
2022/03/06 05:33:23;;;;;;;14.23;12.73;;;-0.20;99.90;;;;;;4985945;28;20567;-78
2022/03/06 05:35:49;;;;;;;15.07;13.07;;;-0.20;99.90;;;;;;4972842;28;20070;-78
2022/03/06 05:38:15;;;;;;;13.97;12.53;;;-0.30;99.90;;;;;;4988882;28;20133;-78
2022/03/06 05:40:41;;;;;;;13.77;12.37;;;-0.30;99.90;;;;;;4972745;28;20567;-78
2022/03/06 05:43:07;;;;;;;16.77;12.50;;;-0.30;99.90;;;;;;4972980;28;20656;-77
2022/03/06 05:45:33;;;;;;;14.27;12.53;;;-0.30;99.90;;;;;;4987659;28;20145;-78
2022/03/06 05:47:58;;;;;;;14.47;12.97;;;-0.40;99.90;;;;;;4989201;28;20045;-77
2022/03/06 05:50:24;;;;;;;13.47;11.90;;;-0.40;99.90;;;;;;4968605;28;20899;-76
2022/03/06 05:52:50;;;;;;;15.83;12.43;;;-0.40;99.90;;;;;;4984955;28;20131;-77
2022/03/06 05:55:17;;;;;;;17.37;13.10;;;-0.40;99.90;;;;;;4969181;28;20382;-77
2022/03/06 05:57:44;;;;;;;14.43;12.43;;;-0.40;99.90;;;;;;4987225;28;20042;-77
2022/03/06 06:00:11;;;;;;;16.60;12.47;;;-0.40;99.90;;;;;;4984974;28;20451;-76
2022/03/06 06:02:37;;;;;;;14.97;11.93;;;-0.40;99.90;;;;;;4985116;28;20046;-77
2022/03/06 06:05:08;;;;;;;15.33;12.27;;;-0.50;99.90;;;;;;4976075;28;20117;-77
2022/03/06 06:07:34;;;;;;;;;;;-0.50;99.90;;;;;;4988178;28;20042;-77
2022/03/06 06:10:01;;;;;;;14.63;12.30;;;-0.50;99.90;;;;;;4969454;28;19952;-77
2022/03/06 06:12:27;;;;;;;16.17;12.57;;;-0.50;99.90;;;;;;4984840;28;20054;-77
2022/03/06 06:14:53;;;;;;;13.40;12.00;;;-0.50;99.90;;;;;;4980111;28;20148;-77
2022/03/06 06:17:20;;;;;;;14.80;12.47;;;-0.50;99.90;;;;;;4980706;28;20060;-77
2022/03/06 06:19:46;;;;;;;14.83;12.67;;;-0.40;99.90;;;;;;4973927;28;20051;-77
2022/03/06 06:22:11;;;;;;;13.37;11.40;;;-0.50;99.90;;;;;;4986100;28;20056;-77
2022/03/06 06:24:37;;;;;;;14.23;11.73;;;-0.50;99.90;;;;;;4995262;28;20054;-77
2022/03/06 06:27:03;;;;;;;15.30;12.30;;;-0.50;99.90;;;;;;4962302;28;20045;-77
2022/03/06 06:29:29;;;;;;;12.27;11.00;;;-0.50;99.90;;;;;;4979051;28;20169;-77
2022/03/06 06:31:59;;;;;;;14.70;11.67;;;-0.60;99.90;;;;;;4991994;28;20037;-76
2022/03/06 06:34:25;;;;;;;12.57;11.13;;;-0.60;99.90;;;;;;4976993;28;20054;-76
2022/03/06 06:36:51;;;;;;;13.10;11.67;;;-0.60;99.90;;;;;;4957985;28;20045;-76
2022/03/06 06:39:17;;;;;;;14.37;11.40;;;-0.60;99.90;;;;;;4989850;28;20425;-76
2022/03/06 06:41:43;;;;;;;12.57;11.13;;;-0.60;99.90;;;;;;4993403;28;20054;-77
2022/03/06 06:44:09;;;;;;;13.10;10.47;;;-0.50;99.90;;;;;;4944500;28;20054;-78
2022/03/06 06:46:36;;;;;;;14.03;10.90;;;-0.50;99.90;;;;;;4973240;28;20050;-77
2022/03/06 06:49:06;;;;;;;14.03;10.43;;;-0.50;99.90;;;;;;4985195;28;20077;-77
2022/03/06 06:51:32;;;;;;;12.48;9.95;;;-0.40;99.90;;;;;;4972767;28;20061;-76
2022/03/06 06:53:58;;;;;;;11.50;10.07;;;-0.40;99.90;;;;;;4981513;28;20045;-77
2022/03/06 06:56:23;;;;;;;13.93;9.70;;;-0.40;99.90;;;;;;4987061;28;20121;-77
2022/03/06 06:58:49;;;;;;;14.03;10.10;;;-0.40;99.90;;;;;;4974052;28;20769;-76
2022/03/06 07:01:18;;;;;;;12.33;9.67;;;-0.40;99.90;;;;;;4996567;28;20409;-77
2022/03/06 07:03:44;;;;;;;10.27;9.17;;;-0.40;99.90;;;;;;4983366;28;20058;-78
2022/03/06 07:06:10;;;;;;;13.40;9.70;;;-0.30;99.90;;;;;;4998589;28;20053;-77
2022/03/06 07:08:36;;;;;;;11.40;9.37;;;-0.30;99.90;;;;;;4971019;28;20484;-77
2022/03/06 07:11:01;;;;;;;11.57;8.67;;;-0.30;99.90;;;;;;4983908;28;20054;-77
2022/03/06 07:13:27;;;;;;;10.23;8.50;;;-0.30;99.90;;;;;;4983667;28;20505;-78
2022/03/06 07:15:53;;;;;;;10.53;9.03;;;-0.30;99.90;;;;;;4984077;28;20047;-77
2022/03/06 07:18:19;;;;;;;14.40;8.93;;;-0.30;99.90;;;;;;4983845;28;20046;-77
2022/03/06 07:20:45;;;;;;;10.63;8.57;;;-0.30;99.90;;;;;;4977779;28;20421;-78
2022/03/06 07:23:11;;;;;;;12.13;9.17;;;-0.30;99.90;;;;;;4984115;28;20504;-77
2022/03/06 07:25:37;;;;;;;10.90;8.47;;;-0.20;99.90;;;;;;4956198;28;20050;-77
2022/03/06 07:28:04;;;;;;;11.77;8.23;;;-0.10;99.90;;;;;;4967660;28;20046;-77
2022/03/06 07:30:30;;;;;;;11.00;7.43;;;0.00;99.90;;;;;;4984007;28;20145;-78
2022/03/06 07:32:56;;;;;;;9.53;7.87;;;0.00;99.90;;;;;;4996614;28;20173;-78
2022/03/06 07:35:22;;;;;;;10.53;7.77;;;0.00;99.90;;;;;;4987410;28;20057;-77
2022/03/06 07:37:49;;;;;;;8.37;7.23;;;0.00;99.90;;;;;;4987129;28;20050;-77
2022/03/06 07:40:17;;;;;;;9.50;7.03;;;0.10;99.90;;;;;;5003869;28;20165;-77
2022/03/06 07:42:43;;;;;;;11.03;7.43;;;0.30;99.90;;;;;;5003451;28;20050;-77
2022/03/06 07:45:10;;;;;;;11.80;8.00;;;0.30;99.90;;;;;;4987438;28;20100;-77
2022/03/06 07:47:39;;;;;;;9.27;6.93;;;0.40;99.90;;;;;;5003561;28;20408;-78
2022/03/06 07:50:07;;;;;;;10.83;7.20;;;0.50;99.90;;;;;;4986373;28;20137;-79
2022/03/06 07:52:34;;;;;;;10.77;6.90;;;0.60;99.90;;;;;;4970934;28;20104;-79
2022/03/06 07:55:00;;;;;;;9.90;6.53;;;0.70;99.90;;;;;;4987279;28;20056;-78
2022/03/06 07:57:26;;;;;;;6.47;5.83;;;0.80;99.90;;;;;;4986568;28;20126;-78
2022/03/06 07:59:52;;;;;;;8.50;5.90;;;1.00;99.90;;;;;;4984389;28;20087;-78
2022/03/06 08:02:17;;;;;;;7.97;6.27;;;1.00;99.90;;;;;;4955390;28;20158;-79
2022/03/06 08:04:43;;;;;;;8.47;5.70;;;1.20;99.90;;;;;;4975077;28;20104;-79
2022/03/06 08:07:09;;;;;;;7.23;5.70;;;1.30;99.90;;;;;;4985201;28;20357;-79
2022/03/06 08:09:35;;;;;;;7.93;5.67;;;1.40;99.90;;;;;;4987153;28;20504;-79
2022/03/06 08:12:01;;;;;;;7.10;5.23;;;1.50;99.90;;;;;;4986520;28;20493;-80
2022/03/06 08:14:27;;;;;;;7.80;4.90;;;1.70;99.90;;;;;;4988581;28;20053;-80
2022/03/06 08:16:53;;;;;;;5.67;4.70;;;1.80;99.90;;;;;;5004284;28;20570;-78
2022/03/06 08:19:20;;;;;;;8.67;5.20;;;2.00;99.90;;;;;;4950212;28;20132;-79
2022/03/06 08:21:48;;;;;;;6.30;4.90;;;2.20;99.90;;;;;;4977778;28;20060;-79
2022/03/06 08:24:14;;;;;;;6.47;4.50;;;2.30;99.90;;;;;;4963392;28;20069;-80
2022/03/06 08:26:40;;;;;;;6.00;4.13;;;2.50;99.90;;;;;;4969332;28;20152;-79
2022/03/06 08:29:05;;;;;;;7.20;4.53;;;2.60;99.90;;;;;;4978638;28;20124;-81
2022/03/06 08:31:31;;;;;;;7.10;4.07;;;2.80;99.90;;;;;;4995500;28;20046;-79
2022/03/06 08:33:57;;;;;;;5.53;3.80;;;2.90;99.90;;;;;;4964915;28;20504;-79
2022/03/06 08:36:23;;;;;;;5.80;3.97;;;3.00;99.90;;;;;;4982008;28;21372;-79
2022/03/06 08:38:49;;;;;;;7.40;3.83;;;3.10;99.90;;;;;;4975263;28;20050;-79
2022/03/06 08:41:15;;;;;;;5.17;3.80;;;3.20;99.90;;;;;;4963646;28;20509;-79
2022/03/06 08:43:41;;;;;;;5.30;4.03;;;3.20;99.90;;;;;;4959995;28;20057;-79
2022/03/06 08:46:07;;;;;;;6.33;3.73;;;3.30;99.90;;;;;;4965109;28;20050;-80
2022/03/06 08:48:32;;;;;;;5.57;3.33;;;3.40;99.90;;;;;;4967323;28;20050;-78
2022/03/06 08:50:59;;;;;;;6.97;4.13;;;3.50;99.90;;;;;;4986476;28;20429;-80
2022/03/06 08:53:28;;;;;;;5.70;3.20;;;3.50;99.90;;;;;;4988095;28;20074;-81
2022/03/06 08:55:53;;;;;;;6.20;3.87;;;3.40;99.90;;;;;;4992124;28;20185;-79
2022/03/06 08:58:19;;;;;;;5.13;3.97;;;3.50;99.90;;;;;;4981470;28;20174;-77
2022/03/06 09:00:45;;;;;;;7.10;3.80;;;3.60;99.90;;;;;;4950408;28;20377;-78
2022/03/06 09:03:11;;;;;;;6.10;3.57;;;3.60;99.90;;;;;;4982606;28;20053;-77
2022/03/06 09:05:40;;;;;;;5.47;3.33;;;3.60;99.90;;;;;;4966512;28;20062;-73
2022/03/06 09:08:10;;;;;;;5.53;3.43;;;3.60;99.90;;;;;;4979867;28;20046;-77
2022/03/06 09:10:37;;;;;;;5.45;3.40;;;3.70;98.80;;;;;;4979834;28;20224;-78
2022/03/06 09:13:04;;;;;;;10.07;3.83;;;3.70;99.90;;;;;;4985198;28;20046;-77
2022/03/06 09:15:30;;;;;;;5.93;3.10;;;3.80;99.90;;;;;;4993064;28;20130;-80
2022/03/06 09:17:56;;;;;;;6.07;3.33;;;3.90;99.50;;;;;;4973607;28;20674;-80
2022/03/06 09:20:23;;;;;;;4.43;2.90;;;4.00;99.20;;;;;;4968652;28;20057;-79
2022/03/06 09:22:49;;;;;;;5.47;3.30;;;4.00;98.00;;;;;;4995813;28;20049;-78
2022/03/06 09:25:15;;;;;;;5.07;3.20;;;4.00;96.80;;;;;;4987312;28;20160;-75
2022/03/06 09:27:41;;;;;;;5.00;2.90;;;3.90;96.10;;;;;;4975483;28;20156;-80
2022/03/06 09:30:08;;;;;;;6.60;3.40;;;3.90;96.20;;;;;;4984335;28;20148;-80
2022/03/06 09:32:34;;;;;;;7.47;4.03;;;3.80;97.10;;;;;;4970109;28;20393;-81
2022/03/06 09:35:00;;;;;;;4.27;3.00;;;3.90;98.90;;;;;;4972919;28;20085;-80
2022/03/06 09:37:29;;;;;;;5.40;3.23;;;4.00;98.30;;;;;;4973214;28;20128;-75
2022/03/06 09:39:55;;;;;;;4.57;2.87;;;4.00;95.00;;;;;;4955628;28;21209;-80
2022/03/06 09:42:22;;;;;;;5.40;3.40;;;4.00;95.00;;;;;;4976610;28;20081;-78
2022/03/06 09:44:49;;;;;;;6.17;3.40;;;4.00;95.40;;;;;;4962485;28;20353;-80
2022/03/06 09:47:16;;;;;;;4.53;3.10;;;4.00;94.70;;;;;;4995158;28;20108;-81
2022/03/06 09:49:44;;;;;;;6.23;3.07;;;4.00;95.40;;;;;;4984257;28;20461;-80
2022/03/06 09:52:11;;;;;;;5.17;2.83;;;4.10;94.90;;;;;;4993016;28;20116;-77
2022/03/06 09:54:37;;;;;;;5.47;3.10;;;4.20;93.70;;;;;;4991985;28;20042;-81
2022/03/06 09:57:04;;;;;;;5.37;2.87;;;4.20;94.10;;;;;;4969033;28;20046;-82
2022/03/06 09:59:31;;;;;;;7.00;3.23;;;4.30;93.20;;;;;;4994167;28;20526;-79
2022/03/06 10:02:01;;;;;;;5.17;3.13;;;4.20;92.80;;;;;;4992467;28;20049;-79
2022/03/06 10:04:29;;;;;;;6.75;3.42;;;4.20;93.10;;;;;;4970233;28;20046;-81
2022/03/06 10:06:59;;;;;;;6.50;3.07;;;4.20;94.70;;;;;;4995837;28;20457;-81
2022/03/06 10:09:26;;;;;;;5.78;2.92;;;4.30;94.90;;;;;;4984061;28;20052;-81
2022/03/06 10:11:54;;;;;;;5.33;3.07;;;4.50;95.20;;;;;;4972408;28;20046;-80
2022/03/06 10:14:42;;;;;;;4.10;2.80;;;4.60;95.20;;;;;;4975141;28;20300;-77
2022/03/06 10:17:19;;;;;;;5.03;3.30;;;4.70;92.60;;;;;;4983136;28;20043;-79
2022/03/06 10:19:52;;;;;;;5.53;2.70;;;4.60;92.00;;;;;;4996577;28;20200;-79
2022/03/06 10:22:21;;;;;;;4.80;2.97;;;4.60;91.10;;;;;;4984208;28;20054;-80
2022/03/06 10:24:59;;;;;;;5.30;3.25;;;4.60;91.50;;;;;;4992269;28;20049;-78
2022/03/06 10:27:47;;;;;;;5.77;3.07;;;4.60;91.10;;;;;;4984082;28;20086;-80
2022/03/06 10:30:32;;;;;;;5.28;3.13;;;4.60;91.00;;;;;;4969910;28;20124;-77
2022/03/06 10:33:08;;;;;;;6.25;3.63;;;4.60;91.00;;;;;;5000361;28;20104;-78
2022/03/06 10:35:42;;;;;;;6.72;3.45;;;4.60;91.20;;;;;;4983892;28;20048;-77
2022/03/06 10:38:31;;;;;;;6.65;3.20;;;4.60;90.60;;;;;;4978283;28;20090;-79
2022/03/06 10:41:12;;;;;;;5.53;3.13;;;4.60;90.70;;;;;;4984294;28;20446;-79
2022/03/06 10:43:40;;;;;;;5.20;3.17;;;4.50;91.20;;;;;;4986937;28;20054;-79
2022/03/06 10:46:15;;;;;;;6.27;3.23;;;4.60;92.40;;;;;;4984366;28;20058;-79
2022/03/06 10:48:43;;;;;;;6.05;3.45;;;4.70;92.00;;;;;;4986790;28;20366;-79
2022/03/06 10:51:12;;;;;;;4.80;3.17;;;4.90;91.70;;;;;;4975858;28;20041;-80
2022/03/06 10:53:38;;;;;;;5.87;3.40;;;4.90;92.30;;;;;;4983734;28;20034;-80
2022/03/06 10:56:10;;;;;;;5.73;3.37;;;4.90;92.30;;;;;;4980540;28;20076;-79
2022/03/06 10:58:38;;;;;;;4.22;2.75;;;5.00;92.20;;;;;;5004084;28;20563;-79
2022/03/06 11:01:04;;;;;;;5.10;2.97;;;5.10;92.30;;;;;;4983977;28;20045;-77
2022/03/06 11:03:34;;;;;;;4.75;3.30;;;5.20;90.60;;;;;;4980415;28;20127;-76
2022/03/06 11:06:04;;;;;;;5.43;3.22;;;5.10;88.80;;;;;;4989611;28;20171;-78
2022/03/06 11:08:31;;;;;;;5.10;3.00;;;5.00;90.10;;;;;;4995159;28;20065;-78
2022/03/06 11:10:58;;;;;;;6.03;3.38;;;5.10;90.00;;;;;;4991275;28;20042;-78
2022/03/06 11:13:27;;;;;;;4.95;3.13;;;5.10;91.10;;;;;;4986270;28;20113;-78
2022/03/06 11:15:53;;;;;;;7.90;3.83;;;5.20;90.80;;;;;;4996958;28;20053;-78
2022/03/06 11:18:19;;;;;;;4.88;3.05;;;5.20;90.40;;;;;;4984758;28;20109;-80
2022/03/06 11:20:46;;;;;;;5.95;3.13;;;5.20;90.10;;;;;;4984547;28;20081;-77
2022/03/06 11:23:12;;;;;;;5.50;3.30;;;5.20;89.80;;;;;;4996260;28;20127;-79
2022/03/06 11:25:50;;;;;;;5.18;3.38;;;5.20;91.00;;;;;;4968439;28;20046;-79
2022/03/06 11:28:31;;;;;;;5.22;3.55;;;5.30;91.00;;;;;;4983081;28;20671;-80
2022/03/06 11:30:59;;;;;;;5.32;3.20;;;5.40;90.20;;;;;;4967999;28;20050;-80
2022/03/06 11:33:26;;;;;;;5.82;3.30;;;5.40;90.00;;;;;;4985437;28;20293;-78
2022/03/06 11:35:52;;;;;;;6.75;3.50;;;5.30;90.70;;;;;;4971869;28;20136;-80
2022/03/06 11:38:18;;;;;;;6.68;3.42;;;5.40;90.90;;;;;;4989223;28;20448;-77
2022/03/06 11:40:46;;;;;;;5.38;3.58;;;5.50;91.20;;;;;;4979824;28;20050;-79
2022/03/06 11:43:33;;;;;;;7.25;3.88;;;5.40;90.70;;;;;;4976779;28;20081;-77
2022/03/06 11:45:59;;;;;;;6.03;3.45;;;5.50;90.80;;;;;;4989992;28;20596;-79
2022/03/06 11:48:33;;;;;;;6.28;3.40;;;5.60;90.00;;;;;;4990919;28;20065;-78
2022/03/06 11:51:15;;;;;;;8.73;3.83;;;5.50;90.00;;;;;;4976440;28;20492;-79
2022/03/06 11:53:57;;;;;;;5.25;3.33;;;5.60;90.50;;;;;;4978323;28;20050;-79
2022/03/06 11:56:32;;;;;;;5.18;3.10;;;5.70;89.10;;;;;;4991968;28;20050;-78
2022/03/06 11:59:04;;;;;;;6.40;3.40;;;5.60;87.20;;;;;;4971407;28;20041;-78
2022/03/06 12:01:35;;;;;;;8.13;4.30;;;5.60;89.00;;;;;;4990952;28;20050;-79
2022/03/06 12:04:13;;;;;;;6.28;3.95;;;5.70;91.80;;;;;;5006106;28;20053;-79
2022/03/06 12:06:51;;;;;;;6.72;3.17;;;5.90;91.60;;;;;;4971963;28;20042;-79
2022/03/06 12:09:28;;;;;;;5.53;3.53;;;5.90;90.00;;;;;;4986284;28;20793;-79
2022/03/06 12:12:02;;;;;;;6.35;3.35;;;6.00;90.20;;;;;;4986794;28;20493;-77
2022/03/06 12:14:39;;;;;;;8.27;3.60;;;6.00;88.60;;;;;;4986314;28;20050;-79
2022/03/06 12:17:10;;;;;;;6.82;3.72;;;6.00;89.80;;;;;;4986664;28;20049;-77
2022/03/06 12:19:42;;;;;;;7.22;3.35;;;6.10;88.50;;;;;;4985550;28;20054;-80
2022/03/06 12:22:20;;;;;;;4.97;3.53;;;6.10;89.60;;;;;;4987566;28;20058;-79
2022/03/06 12:25:10;;;;;;;5.97;3.70;;;6.00;89.50;;;;;;4987082;28;20058;-78
2022/03/06 12:28:05;;;;;;;6.93;3.80;;;5.90;89.40;;;;;;4986569;28;20099;-75
2022/03/06 12:30:34;;;;;;;8.10;3.95;;;6.20;90.50;;;;;;4977254;28;20550;-79
2022/03/06 12:33:30;;;;;;;7.65;3.75;;;6.20;87.50;;;;;;5001273;28;20053;-74
2022/03/06 12:36:23;;;;;;;6.88;3.72;;;6.30;86.00;;;;;;4993351;28;20038;-78
2022/03/06 12:38:58;;;;;;;6.60;3.67;;;6.20;90.10;;;;;;4984829;28;20050;-79
2022/03/06 12:41:24;;;;;;;6.13;3.70;;;6.40;88.40;;;;;;4970784;28;20053;-78
2022/03/06 12:44:00;;;;;;;6.38;3.50;;;6.30;88.70;;;;;;4987251;28;20193;-79
2022/03/06 12:46:27;;;;;;;7.32;3.90;;;6.30;88.10;;;;;;4977765;28;20505;-79